sensor_id;sensor_type;location;lat;lon;timestamp;pressure;altitude;pressure_sealevel;temperature;humidity
43503;BME280;29098;48.184;16.298;2023-05-25T00:01:57;99787.47;;;14.35;93.12
43503;BME280;29098;48.184;16.298;2023-05-25T00:04:23;99738.06;;;13.92;94.53
43503;BME280;29098;48.184;16.298;2023-05-25T00:06:52;99736.47;;;13.97;94.20
43503;BME280;29098;48.184;16.298;2023-05-25T00:09:17;99745.94;;;14.07;94.08
43503;BME280;29098;48.184;16.298;2023-05-25T00:11:43;99796.16;;;14.22;93.65
43503;BME280;29098;48.184;16.298;2023-05-25T00:14:09;99783.84;;;14.07;94.63
43503;BME280;29098;48.184;16.298;2023-05-25T00:16:35;99758.94;;;14.02;94.34
43503;BME280;29098;48.184;16.298;2023-05-25T00:19:04;99822.41;;;14.10;95.27
43503;BME280;29098;48.184;16.298;2023-05-25T00:21:31;99796.50;;;14.12;94.92
43503;BME280;29098;48.184;16.298;2023-05-25T00:23:59;99765.84;;;13.96;95.37
43503;BME280;29098;48.184;16.298;2023-05-25T00:26:25;99800.72;;;14.00;94.37
43503;BME280;29098;48.184;16.298;2023-05-25T00:28:50;99776.28;;;13.76;95.59
43503;BME280;29098;48.184;16.298;2023-05-25T00:31:18;99793.88;;;13.83;96.67
43503;BME280;29098;48.184;16.298;2023-05-25T00:33:43;99793.44;;;13.80;94.39
43503;BME280;29098;48.184;16.298;2023-05-25T00:36:09;99815.50;;;13.87;95.42
43503;BME280;29098;48.184;16.298;2023-05-25T00:38:35;99785.13;;;13.83;95.14
43503;BME280;29098;48.184;16.298;2023-05-25T00:41:02;99760.75;;;13.73;94.74
43503;BME280;29098;48.184;16.298;2023-05-25T00:43:30;99835.91;;;13.87;96.15
43503;BME280;29098;48.184;16.298;2023-05-25T00:45:55;99812.59;;;13.82;95.42
43503;BME280;29098;48.184;16.298;2023-05-25T00:48:24;99808.84;;;13.69;96.25
43503;BME280;29098;48.184;16.298;2023-05-25T00:50:53;99786.06;;;13.53;96.74
43503;BME280;29098;48.184;16.298;2023-05-25T00:53:19;99820.94;;;13.57;98.49
43503;BME280;29098;48.184;16.298;2023-05-25T00:56:16;99764.69;;;13.33;98.67
43503;BME280;29098;48.184;16.298;2023-05-25T00:58:45;99804.03;;;13.58;98.53
43503;BME280;29098;48.184;16.298;2023-05-25T01:01:14;99779.41;;;13.58;96.94
43503;BME280;29098;48.184;16.298;2023-05-25T01:03:41;99823.72;;;13.49;99.06
43503;BME280;29098;48.184;16.298;2023-05-25T01:06:14;99821.22;;;13.62;97.84
43503;BME280;29098;48.184;16.298;2023-05-25T01:08:44;99805.69;;;13.37;97.60
43503;BME280;29098;48.184;16.298;2023-05-25T01:11:13;99790.91;;;13.06;99.86
43503;BME280;29098;48.184;16.298;2023-05-25T01:13:41;99766.81;;;13.01;99.57
43503;BME280;29098;48.184;16.298;2023-05-25T01:16:08;99796.88;;;13.15;98.65
43503;BME280;29098;48.184;16.298;2023-05-25T01:18:33;99805.88;;;13.21;98.39
43503;BME280;29098;48.184;16.298;2023-05-25T01:21:08;99805.81;;;13.29;99.30
43503;BME280;29098;48.184;16.298;2023-05-25T01:23:47;99817.75;;;13.25;99.61
43503;BME280;29098;48.184;16.298;2023-05-25T01:26:16;99814.28;;;13.24;100.00
43503;BME280;29098;48.184;16.298;2023-05-25T01:28:48;99768.50;;;12.87;100.00
43503;BME280;29098;48.184;16.298;2023-05-25T01:31:14;99809.16;;;13.01;100.00
43503;BME280;29098;48.184;16.298;2023-05-25T01:33:46;99787.34;;;12.99;100.00
43503;BME280;29098;48.184;16.298;2023-05-25T01:36:13;99779.03;;;13.02;100.00
43503;BME280;29098;48.184;16.298;2023-05-25T01:38:38;99780.00;;;12.79;100.00
43503;BME280;29098;48.184;16.298;2023-05-25T01:41:04;99802.25;;;12.85;100.00
43503;BME280;29098;48.184;16.298;2023-05-25T01:43:29;99816.31;;;12.85;100.00
43503;BME280;29098;48.184;16.298;2023-05-25T01:46:05;99807.91;;;12.82;100.00
43503;BME280;29098;48.184;16.298;2023-05-25T01:48:39;99814.38;;;12.79;100.00
43503;BME280;29098;48.184;16.298;2023-05-25T01:51:18;99807.38;;;12.56;100.00
43503;BME280;29098;48.184;16.298;2023-05-25T01:54:02;99829.53;;;12.70;100.00
43503;BME280;29098;48.184;16.298;2023-05-25T01:56:32;99816.22;;;12.79;100.00
43503;BME280;29098;48.184;16.298;2023-05-25T01:59:00;99775.66;;;12.56;100.00
43503;BME280;29098;48.184;16.298;2023-05-25T02:01:27;99807.56;;;12.70;100.00
43503;BME280;29098;48.184;16.298;2023-05-25T02:03:53;99810.22;;;12.70;100.00
43503;BME280;29098;48.184;16.298;2023-05-25T02:06:20;99844.94;;;12.82;100.00
43503;BME280;29098;48.184;16.298;2023-05-25T02:08:46;99823.72;;;12.75;100.00
43503;BME280;29098;48.184;16.298;2023-05-25T02:11:12;99810.94;;;12.64;100.00
43503;BME280;29098;48.184;16.298;2023-05-25T02:13:39;99778.78;;;12.45;100.00
43503;BME280;29098;48.184;16.298;2023-05-25T02:16:05;99846.06;;;12.72;100.00
43503;BME280;29098;48.184;16.298;2023-05-25T02:18:31;99828.44;;;12.80;100.00
43503;BME280;29098;48.184;16.298;2023-05-25T02:20:56;99837.28;;;12.72;100.00
43503;BME280;29098;48.184;16.298;2023-05-25T02:23:22;99841.03;;;12.63;100.00
43503;BME280;29098;48.184;16.298;2023-05-25T02:25:47;99796.06;;;12.47;100.00
43503;BME280;29098;48.184;16.298;2023-05-25T02:28:13;99786.50;;;12.31;100.00
43503;BME280;29098;48.184;16.298;2023-05-25T02:30:39;99850.06;;;12.53;100.00
43503;BME280;29098;48.184;16.298;2023-05-25T02:33:04;99846.72;;;12.59;100.00
43503;BME280;29098;48.184;16.298;2023-05-25T02:35:29;99852.00;;;12.59;100.00
43503;BME280;29098;48.184;16.298;2023-05-25T02:37:55;99832.19;;;12.25;100.00
43503;BME280;29098;48.184;16.298;2023-05-25T02:40:20;99849.50;;;12.43;100.00
43503;BME280;29098;48.184;16.298;2023-05-25T02:42:46;99815.78;;;12.30;100.00
43503;BME280;29098;48.184;16.298;2023-05-25T02:45:11;99805.38;;;12.28;100.00
43503;BME280;29098;48.184;16.298;2023-05-25T02:47:37;99861.19;;;12.49;100.00
43503;BME280;29098;48.184;16.298;2023-05-25T02:50:03;99852.91;;;12.37;100.00
43503;BME280;29098;48.184;16.298;2023-05-25T02:52:29;99876.59;;;12.45;100.00
43503;BME280;29098;48.184;16.298;2023-05-25T02:54:57;99875.78;;;12.44;100.00
43503;BME280;29098;48.184;16.298;2023-05-25T02:57:22;99869.28;;;12.32;100.00
43503;BME280;29098;48.184;16.298;2023-05-25T02:59:48;99798.16;;;12.07;100.00
43503;BME280;29098;48.184;16.298;2023-05-25T03:02:14;99822.78;;;12.23;100.00
43503;BME280;29098;48.184;16.298;2023-05-25T03:04:46;99895.66;;;12.40;100.00
43503;BME280;29098;48.184;16.298;2023-05-25T03:07:14;99883.63;;;12.38;100.00
43503;BME280;29098;48.184;16.298;2023-05-25T03:09:39;99838.84;;;12.21;100.00
43503;BME280;29098;48.184;16.298;2023-05-25T03:12:05;99885.50;;;12.29;100.00
43503;BME280;29098;48.184;16.298;2023-05-25T03:14:30;99836.72;;;12.16;100.00
43503;BME280;29098;48.184;16.298;2023-05-25T03:16:56;99823.44;;;12.01;100.00
43503;BME280;29098;48.184;16.298;2023-05-25T03:19:21;99890.69;;;12.22;100.00
43503;BME280;29098;48.184;16.298;2023-05-25T03:21:47;99873.53;;;12.18;100.00
43503;BME280;29098;48.184;16.298;2023-05-25T03:24:12;99874.78;;;12.07;100.00
43503;BME280;29098;48.184;16.298;2023-05-25T03:26:38;99806.50;;;11.96;100.00
43503;BME280;29098;48.184;16.298;2023-05-25T03:29:03;99861.16;;;12.18;100.00
43503;BME280;29098;48.184;16.298;2023-05-25T03:31:31;99886.59;;;12.19;100.00
43503;BME280;29098;48.184;16.298;2023-05-25T03:33:56;99888.97;;;12.29;100.00
43503;BME280;29098;48.184;16.298;2023-05-25T03:36:22;99897.31;;;12.03;100.00
43503;BME280;29098;48.184;16.298;2023-05-25T03:38:52;99893.78;;;12.02;100.00
43503;BME280;29098;48.184;16.298;2023-05-25T03:41:17;99896.44;;;12.02;100.00
43503;BME280;29098;48.184;16.298;2023-05-25T03:43:43;99872.56;;;11.96;100.00
43503;BME280;29098;48.184;16.298;2023-05-25T03:46:08;99838.16;;;11.81;100.00
43503;BME280;29098;48.184;16.298;2023-05-25T03:48:35;99890.66;;;11.84;100.00
43503;BME280;29098;48.184;16.298;2023-05-25T03:51:01;99870.53;;;11.98;100.00
43503;BME280;29098;48.184;16.298;2023-05-25T03:53:26;99875.72;;;11.91;100.00
43503;BME280;29098;48.184;16.298;2023-05-25T03:55:52;99844.19;;;11.89;100.00
43503;BME280;29098;48.184;16.298;2023-05-25T03:58:17;99914.78;;;12.04;100.00
43503;BME280;29098;48.184;16.298;2023-05-25T04:00:43;99908.84;;;12.02;100.00
43503;BME280;29098;48.184;16.298;2023-05-25T04:03:08;99902.63;;;12.18;100.00
43503;BME280;29098;48.184;16.298;2023-05-25T04:05:35;99871.38;;;11.98;100.00
43503;BME280;29098;48.184;16.298;2023-05-25T04:08:01;99890.34;;;12.02;100.00
43503;BME280;29098;48.184;16.298;2023-05-25T04:10:27;99889.09;;;12.13;100.00
43503;BME280;29098;48.184;16.298;2023-05-25T04:12:53;99902.91;;;12.23;100.00
43503;BME280;29098;48.184;16.298;2023-05-25T04:15:21;99894.34;;;12.21;100.00
43503;BME280;29098;48.184;16.298;2023-05-25T04:17:46;99859.13;;;12.05;100.00
43503;BME280;29098;48.184;16.298;2023-05-25T04:20:12;99893.03;;;12.17;100.00
43503;BME280;29098;48.184;16.298;2023-05-25T04:22:37;99867.97;;;12.13;100.00
43503;BME280;29098;48.184;16.298;2023-05-25T04:25:07;99877.25;;;12.09;100.00
43503;BME280;29098;48.184;16.298;2023-05-25T04:27:33;99824.88;;;11.89;100.00
43503;BME280;29098;48.184;16.298;2023-05-25T04:29:58;99889.47;;;12.10;100.00
43503;BME280;29098;48.184;16.298;2023-05-25T04:32:25;99883.94;;;12.19;100.00
43503;BME280;29098;48.184;16.298;2023-05-25T04:34:54;99899.56;;;12.29;100.00
43503;BME280;29098;48.184;16.298;2023-05-25T04:37:21;99900.38;;;12.30;100.00
43503;BME280;29098;48.184;16.298;2023-05-25T04:39:47;99830.28;;;11.96;100.00
43503;BME280;29098;48.184;16.298;2023-05-25T04:42:13;99834.38;;;11.98;100.00
43503;BME280;29098;48.184;16.298;2023-05-25T04:44:38;99907.41;;;12.38;100.00
43503;BME280;29098;48.184;16.298;2023-05-25T04:47:05;99887.94;;;12.15;100.00
43503;BME280;29098;48.184;16.298;2023-05-25T04:49:31;99902.13;;;12.38;100.00
43503;BME280;29098;48.184;16.298;2023-05-25T04:51:56;99835.91;;;12.16;100.00
43503;BME280;29098;48.184;16.298;2023-05-25T04:54:23;99909.34;;;12.44;100.00
43503;BME280;29098;48.184;16.298;2023-05-25T04:56:49;99867.56;;;12.39;100.00
43503;BME280;29098;48.184;16.298;2023-05-25T04:59:15;99866.50;;;12.49;100.00
43503;BME280;29098;48.184;16.298;2023-05-25T05:01:41;99907.16;;;12.63;100.00
43503;BME280;29098;48.184;16.298;2023-05-25T05:04:09;99911.06;;;12.67;100.00
43503;BME280;29098;48.184;16.298;2023-05-25T05:06:35;99896.50;;;12.71;100.00
43503;BME280;29098;48.184;16.298;2023-05-25T05:09:03;99870.03;;;12.71;100.00
43503;BME280;29098;48.184;16.298;2023-05-25T05:11:29;99920.94;;;12.73;100.00
43503;BME280;29098;48.184;16.298;2023-05-25T05:13:55;99890.22;;;12.87;100.00
43503;BME280;29098;48.184;16.298;2023-05-25T05:16:21;99929.69;;;12.88;100.00
43503;BME280;29098;48.184;16.298;2023-05-25T05:18:46;99866.94;;;12.82;100.00
43503;BME280;29098;48.184;16.298;2023-05-25T05:21:12;99899.59;;;12.90;100.00
43503;BME280;29098;48.184;16.298;2023-05-25T05:23:38;99938.09;;;12.92;100.00
43503;BME280;29098;48.184;16.298;2023-05-25T05:26:03;99872.97;;;12.76;99.64
43503;BME280;29098;48.184;16.298;2023-05-25T05:28:31;99924.97;;;12.99;99.57
43503;BME280;29098;48.184;16.298;2023-05-25T05:30:56;99931.97;;;13.07;99.17
43503;BME280;29098;48.184;16.298;2023-05-25T05:33:22;99922.69;;;13.11;97.84
43503;BME280;29098;48.184;16.298;2023-05-25T05:35:50;99885.63;;;13.11;96.89
43503;BME280;29098;48.184;16.298;2023-05-25T05:38:17;99918.19;;;13.26;97.00
43503;BME280;29098;48.184;16.298;2023-05-25T05:40:43;99898.97;;;13.39;95.57
43503;BME280;29098;48.184;16.298;2023-05-25T05:43:12;99920.00;;;13.26;93.66
43503;BME280;29098;48.184;16.298;2023-05-25T05:45:38;99925.63;;;13.38;93.96
43503;BME280;29098;48.184;16.298;2023-05-25T05:48:05;99895.91;;;13.21;94.65
43503;BME280;29098;48.184;16.298;2023-05-25T05:50:36;99889.50;;;13.30;94.46
43503;BME280;29098;48.184;16.298;2023-05-25T05:53:02;99918.84;;;13.65;92.17
43503;BME280;29098;48.184;16.298;2023-05-25T05:55:28;99923.13;;;13.66;91.21
43503;BME280;29098;48.184;16.298;2023-05-25T05:57:53;99952.06;;;13.83;90.63
43503;BME280;29098;48.184;16.298;2023-05-25T06:00:19;99943.78;;;13.93;90.97
43503;BME280;29098;48.184;16.298;2023-05-25T06:02:45;99910.47;;;13.83;88.32
43503;BME280;29098;48.184;16.298;2023-05-25T06:05:11;99922.44;;;14.01;88.58
43503;BME280;29098;48.184;16.298;2023-05-25T06:07:36;99916.03;;;14.10;88.52
43503;BME280;29098;48.184;16.298;2023-05-25T06:10:03;99933.44;;;13.98;88.19
43503;BME280;29098;48.184;16.298;2023-05-25T06:12:28;99895.94;;;14.01;88.24
43503;BME280;29098;48.184;16.298;2023-05-25T06:14:54;99890.31;;;14.11;87.55
43503;BME280;29098;48.184;16.298;2023-05-25T06:17:19;99934.31;;;14.27;86.13
43503;BME280;29098;48.184;16.298;2023-05-25T06:19:46;99961.44;;;14.29;85.92
43503;BME280;29098;48.184;16.298;2023-05-25T06:22:12;99908.84;;;14.33;84.97
43503;BME280;29098;48.184;16.298;2023-05-25T06:24:37;99902.66;;;14.25;84.36
43503;BME280;29098;48.184;16.298;2023-05-25T06:27:02;99905.28;;;14.47;84.48
43503;BME280;29098;48.184;16.298;2023-05-25T06:29:29;99927.75;;;14.51;83.87
43503;BME280;29098;48.184;16.298;2023-05-25T06:31:54;99900.38;;;14.44;84.18
43503;BME280;29098;48.184;16.298;2023-05-25T06:34:20;99951.00;;;14.49;81.13
43503;BME280;29098;48.184;16.298;2023-05-25T06:36:45;99950.06;;;14.57;81.62
43503;BME280;29098;48.184;16.298;2023-05-25T06:39:12;99897.47;;;14.39;82.44
43503;BME280;29098;48.184;16.298;2023-05-25T06:41:37;99925.50;;;14.48;81.35
43503;BME280;29098;48.184;16.298;2023-05-25T06:44:03;99940.09;;;14.66;81.69
43503;BME280;29098;48.184;16.298;2023-05-25T06:46:28;99926.59;;;14.61;82.07
43503;BME280;29098;48.184;16.298;2023-05-25T06:48:54;99943.13;;;14.85;81.82
43503;BME280;29098;48.184;16.298;2023-05-25T06:51:20;99944.34;;;14.89;81.01
43503;BME280;29098;48.184;16.298;2023-05-25T06:53:45;99960.34;;;14.96;81.30
43503;BME280;29098;48.184;16.298;2023-05-25T06:56:11;99947.28;;;15.01;81.38
43503;BME280;29098;48.184;16.298;2023-05-25T06:58:36;99908.69;;;14.98;80.30
43503;BME280;29098;48.184;16.298;2023-05-25T07:01:02;99903.16;;;15.00;79.58
43503;BME280;29098;48.184;16.298;2023-05-25T07:03:27;99912.16;;;14.99;79.57
43503;BME280;29098;48.184;16.298;2023-05-25T07:05:53;99951.03;;;15.20;80.02
43503;BME280;29098;48.184;16.298;2023-05-25T07:08:18;99886.88;;;15.16;79.05
43503;BME280;29098;48.184;16.298;2023-05-25T07:10:44;99921.28;;;15.31;78.69
43503;BME280;29098;48.184;16.298;2023-05-25T07:13:10;99953.63;;;15.48;77.98
43503;BME280;29098;48.184;16.298;2023-05-25T07:15:35;99898.84;;;15.47;78.82
43503;BME280;29098;48.184;16.298;2023-05-25T07:18:01;99930.75;;;15.61;78.05
43503;BME280;29098;48.184;16.298;2023-05-25T07:20:26;99939.81;;;15.73;78.02
43503;BME280;29098;48.184;16.298;2023-05-25T07:22:52;99943.50;;;15.79;78.09
43503;BME280;29098;48.184;16.298;2023-05-25T07:25:17;99936.16;;;15.88;77.72
43503;BME280;29098;48.184;16.298;2023-05-25T07:27:49;99925.97;;;16.05;76.40
43503;BME280;29098;48.184;16.298;2023-05-25T07:30:19;99924.34;;;16.11;76.35
43503;BME280;29098;48.184;16.298;2023-05-25T07:32:44;99955.03;;;16.27;75.11
43503;BME280;29098;48.184;16.298;2023-05-25T07:35:10;99950.34;;;16.36;74.89
43503;BME280;29098;48.184;16.298;2023-05-25T07:37:36;99946.03;;;16.48;73.41
43503;BME280;29098;48.184;16.298;2023-05-25T07:40:01;99904.69;;;16.32;71.77
43503;BME280;29098;48.184;16.298;2023-05-25T07:42:27;99964.88;;;16.60;72.24
43503;BME280;29098;48.184;16.298;2023-05-25T07:44:58;99946.84;;;16.49;70.96
43503;BME280;29098;48.184;16.298;2023-05-25T07:47:24;99961.56;;;16.58;70.62
43503;BME280;29098;48.184;16.298;2023-05-25T07:49:50;99954.63;;;16.57;71.96
43503;BME280;29098;48.184;16.298;2023-05-25T07:52:16;99964.03;;;16.73;70.21
43503;BME280;29098;48.184;16.298;2023-05-25T07:54:43;99910.53;;;16.95;70.07
43503;BME280;29098;48.184;16.298;2023-05-25T07:57:08;99956.53;;;17.29;70.63
43503;BME280;29098;48.184;16.298;2023-05-25T07:59:34;99946.75;;;17.16;70.59
43503;BME280;29098;48.184;16.298;2023-05-25T08:02:00;99966.91;;;17.44;69.70
43503;BME280;29098;48.184;16.298;2023-05-25T08:04:25;99917.53;;;17.35;67.27
43503;BME280;29098;48.184;16.298;2023-05-25T08:06:50;99939.00;;;17.53;67.84
43503;BME280;29098;48.184;16.298;2023-05-25T08:09:16;99931.59;;;17.56;67.28
43503;BME280;29098;48.184;16.298;2023-05-25T08:11:41;99927.25;;;17.61;66.75
43503;BME280;29098;48.184;16.298;2023-05-25T08:14:09;99936.59;;;17.77;67.01
43503;BME280;29098;48.184;16.298;2023-05-25T08:16:35;99945.66;;;17.70;66.14
43503;BME280;29098;48.184;16.298;2023-05-25T08:19:00;99939.16;;;17.59;67.79
43503;BME280;29098;48.184;16.298;2023-05-25T08:21:26;99939.13;;;17.65;67.78
43503;BME280;29098;48.184;16.298;2023-05-25T08:23:51;99908.78;;;17.60;66.07
43503;BME280;29098;48.184;16.298;2023-05-25T08:26:18;99942.09;;;17.83;65.47
43503;BME280;29098;48.184;16.298;2023-05-25T08:28:43;99916.97;;;17.65;65.76
43503;BME280;29098;48.184;16.298;2023-05-25T08:31:09;99959.22;;;17.68;65.29
43503;BME280;29098;48.184;16.298;2023-05-25T08:33:35;99927.97;;;17.43;65.77
43503;BME280;29098;48.184;16.298;2023-05-25T08:36:01;99959.34;;;17.41;66.14
43503;BME280;29098;48.184;16.298;2023-05-25T08:38:29;99928.59;;;17.38;66.87
43503;BME280;29098;48.184;16.298;2023-05-25T08:41:06;99964.88;;;17.46;66.84
43503;BME280;29098;48.184;16.298;2023-05-25T08:43:32;99924.31;;;17.37;67.60
43503;BME280;29098;48.184;16.298;2023-05-25T08:46:03;99940.50;;;17.36;67.92
43503;BME280;29098;48.184;16.298;2023-05-25T08:48:32;99955.59;;;17.56;68.09
43503;BME280;29098;48.184;16.298;2023-05-25T08:51:00;99966.06;;;17.57;68.30
43503;BME280;29098;48.184;16.298;2023-05-25T08:53:27;99929.59;;;17.44;67.79
43503;BME280;29098;48.184;16.298;2023-05-25T08:55:55;99922.56;;;17.57;66.20
43503;BME280;29098;48.184;16.298;2023-05-25T08:58:30;99957.13;;;17.77;68.11
43503;BME280;29098;48.184;16.298;2023-05-25T09:01:01;99973.47;;;17.87;66.00
43503;BME280;29098;48.184;16.298;2023-05-25T09:03:28;99969.34;;;17.91;64.37
43503;BME280;29098;48.184;16.298;2023-05-25T09:05:55;99953.28;;;18.05;64.86
43503;BME280;29098;48.184;16.298;2023-05-25T09:08:22;99973.75;;;18.11;65.21
43503;BME280;29098;48.184;16.298;2023-05-25T09:10:49;99949.97;;;18.10;65.88
43503;BME280;29098;48.184;16.298;2023-05-25T09:13:16;99940.72;;;18.12;66.60
43503;BME280;29098;48.184;16.298;2023-05-25T09:15:41;99961.03;;;18.13;67.28
43503;BME280;29098;48.184;16.298;2023-05-25T09:18:08;99970.94;;;18.31;66.92
43503;BME280;29098;48.184;16.298;2023-05-25T09:20:33;99970.09;;;18.38;67.01
43503;BME280;29098;48.184;16.298;2023-05-25T09:22:59;99918.59;;;18.30;67.14
43503;BME280;29098;48.184;16.298;2023-05-25T09:25:27;99942.75;;;18.35;65.08
43503;BME280;29098;48.184;16.298;2023-05-25T09:27:56;99923.03;;;18.37;64.49
43503;BME280;29098;48.184;16.298;2023-05-25T09:30:25;99921.38;;;18.17;64.29
43503;BME280;29098;48.184;16.298;2023-05-25T09:33:08;99950.25;;;18.27;65.73
43503;BME280;29098;48.184;16.298;2023-05-25T09:35:33;99964.41;;;18.53;65.00
43503;BME280;29098;48.184;16.298;2023-05-25T09:37:59;99913.28;;;18.30;65.15
43503;BME280;29098;48.184;16.298;2023-05-25T09:40:25;99962.19;;;18.68;64.96
43503;BME280;29098;48.184;16.298;2023-05-25T09:42:50;99961.09;;;18.76;65.80
43503;BME280;29098;48.184;16.298;2023-05-25T09:45:15;99968.88;;;18.78;64.41
43503;BME280;29098;48.184;16.298;2023-05-25T09:47:41;99923.78;;;18.69;64.25
43503;BME280;29098;48.184;16.298;2023-05-25T09:50:07;99956.78;;;18.75;62.76
43503;BME280;29098;48.184;16.298;2023-05-25T09:52:32;99965.13;;;18.85;63.17
43503;BME280;29098;48.184;16.298;2023-05-25T09:54:58;99901.44;;;18.64;63.23
43503;BME280;29098;48.184;16.298;2023-05-25T09:57:23;99960.22;;;19.01;64.30
43503;BME280;29098;48.184;16.298;2023-05-25T09:59:51;99892.16;;;18.85;64.55
43503;BME280;29098;48.184;16.298;2023-05-25T10:02:16;99919.63;;;18.92;60.96
43503;BME280;29098;48.184;16.298;2023-05-25T10:04:42;99937.94;;;18.88;62.01
43503;BME280;29098;48.184;16.298;2023-05-25T10:07:07;99938.00;;;19.07;62.22
43503;BME280;29098;48.184;16.298;2023-05-25T10:09:38;99955.22;;;19.30;61.51
43503;BME280;29098;48.184;16.298;2023-05-25T10:12:07;99920.41;;;19.18;62.08
43503;BME280;29098;48.184;16.298;2023-05-25T10:14:36;99907.47;;;19.34;62.15
43503;BME280;29098;48.184;16.298;2023-05-25T10:17:03;99898.28;;;19.41;62.14
43503;BME280;29098;48.184;16.298;2023-05-25T10:19:40;99939.56;;;19.76;63.60
43503;BME280;29098;48.184;16.298;2023-05-25T10:22:18;99945.94;;;19.63;63.20
43503;BME280;29098;48.184;16.298;2023-05-25T10:24:54;99883.94;;;19.24;61.69
43503;BME280;29098;48.184;16.298;2023-05-25T10:27:28;99917.00;;;19.41;62.59
43503;BME280;29098;48.184;16.298;2023-05-25T10:29:58;99925.66;;;19.55;62.95
43503;BME280;29098;48.184;16.298;2023-05-25T10:32:25;99922.75;;;19.88;62.07
43503;BME280;29098;48.184;16.298;2023-05-25T10:34:52;99928.88;;;20.07;62.45
43503;BME280;29098;48.184;16.298;2023-05-25T10:37:22;99904.09;;;20.11;62.40
43503;BME280;29098;48.184;16.298;2023-05-25T10:39:50;99893.94;;;20.02;61.56
43503;BME280;29098;48.184;16.298;2023-05-25T10:42:17;99895.81;;;20.13;61.09
43503;BME280;29098;48.184;16.298;2023-05-25T10:44:44;99946.22;;;20.16;61.81
43503;BME280;29098;48.184;16.298;2023-05-25T10:47:10;99905.94;;;20.11;63.35
43503;BME280;29098;48.184;16.298;2023-05-25T10:49:57;99917.22;;;20.25;58.99
43503;BME280;29098;48.184;16.298;2023-05-25T10:52:26;99878.81;;;20.19;59.15
43503;BME280;29098;48.184;16.298;2023-05-25T10:54:57;99929.69;;;20.43;59.75
43503;BME280;29098;48.184;16.298;2023-05-25T10:57:26;99886.28;;;20.29;61.48
43503;BME280;29098;48.184;16.298;2023-05-25T10:59:53;99890.22;;;20.38;60.15
43503;BME280;29098;48.184;16.298;2023-05-25T11:02:26;99931.34;;;20.68;57.93
43503;BME280;29098;48.184;16.298;2023-05-25T11:08:14;99904.75;;;20.90;57.96
43503;BME280;29098;48.184;16.298;2023-05-25T11:13:31;99894.44;;;21.69;56.72
43503;BME280;29098;48.184;16.298;2023-05-25T11:18:50;99866.66;;;21.75;55.90
43503;BME280;29098;48.184;16.298;2023-05-25T11:21:39;99900.16;;;21.90;55.41
43503;BME280;29098;48.184;16.298;2023-05-25T11:24:11;99852.47;;;21.46;54.51
43503;BME280;29098;48.184;16.298;2023-05-25T11:26:51;99885.09;;;22.06;58.82
43503;BME280;29098;48.184;16.298;2023-05-25T11:29:19;99882.34;;;21.84;54.48
43503;BME280;29098;48.184;16.298;2023-05-25T11:31:51;99844.69;;;21.96;57.39
43503;BME280;29098;48.184;16.298;2023-05-25T11:34:18;99829.38;;;22.13;55.67
43503;BME280;29098;48.184;16.298;2023-05-25T11:36:45;99856.63;;;22.44;56.15
43503;BME280;29098;48.184;16.298;2023-05-25T11:39:11;99829.78;;;22.44;57.79
43503;BME280;29098;48.184;16.298;2023-05-25T11:41:38;99833.06;;;22.69;57.02
43503;BME280;29098;48.184;16.298;2023-05-25T11:44:05;99846.59;;;22.74;55.53
43503;BME280;29098;48.184;16.298;2023-05-25T11:46:31;99871.31;;;22.54;52.89
43503;BME280;29098;48.184;16.298;2023-05-25T11:48:57;99842.31;;;22.56;55.55
43503;BME280;29098;48.184;16.298;2023-05-25T11:51:25;99840.06;;;22.92;54.52
43503;BME280;29098;48.184;16.298;2023-05-25T11:53:51;99839.97;;;23.32;54.29
43503;BME280;29098;48.184;16.298;2023-05-25T11:56:17;99851.31;;;23.39;55.58
43503;BME280;29098;48.184;16.298;2023-05-25T11:58:44;99838.78;;;23.50;52.25
43503;BME280;29098;48.184;16.298;2023-05-25T12:01:15;99855.38;;;23.74;52.12
43503;BME280;29098;48.184;16.298;2023-05-25T12:03:41;99829.06;;;24.19;51.42
43503;BME280;29098;48.184;16.298;2023-05-25T12:06:07;99819.22;;;24.03;51.83
43503;BME280;29098;48.184;16.298;2023-05-25T12:08:34;99808.69;;;23.96;51.95
43503;BME280;29098;48.184;16.298;2023-05-25T12:11:00;99820.00;;;23.98;50.69
43503;BME280;29098;48.184;16.298;2023-05-25T12:13:26;99805.72;;;23.92;52.88
43503;BME280;29098;48.184;16.298;2023-05-25T12:15:54;99818.59;;;24.23;51.65
43503;BME280;29098;48.184;16.298;2023-05-25T12:18:22;99834.78;;;24.33;51.02
43503;BME280;29098;48.184;16.298;2023-05-25T12:20:48;99812.78;;;24.47;50.21
43503;BME280;29098;48.184;16.298;2023-05-25T12:23:15;99818.66;;;24.39;50.72
43503;BME280;29098;48.184;16.298;2023-05-25T12:25:44;99821.97;;;24.56;49.50
43503;BME280;29098;48.184;16.298;2023-05-25T12:28:13;99828.91;;;23.61;48.32
43503;BME280;29098;48.184;16.298;2023-05-25T12:30:39;99823.97;;;23.52;48.50
43503;BME280;29098;48.184;16.298;2023-05-25T12:33:05;99801.81;;;23.73;49.72
43503;BME280;29098;48.184;16.298;2023-05-25T12:35:46;99781.75;;;23.96;50.24
43503;BME280;29098;48.184;16.298;2023-05-25T12:38:19;99813.69;;;24.15;49.88
43503;BME280;29098;48.184;16.298;2023-05-25T12:40:46;99802.66;;;24.80;49.02
43503;BME280;29098;48.184;16.298;2023-05-25T12:43:11;99800.56;;;25.08;48.78
43503;BME280;29098;48.184;16.298;2023-05-25T12:45:42;99817.53;;;24.88;49.82
43503;BME280;29098;48.184;16.298;2023-05-25T12:48:07;99807.06;;;25.17;51.02
43503;BME280;29098;48.184;16.298;2023-05-25T12:50:33;99790.56;;;24.98;49.11
43503;BME280;29098;48.184;16.298;2023-05-25T12:53:00;99764.09;;;24.80;48.54
43503;BME280;29098;48.184;16.298;2023-05-25T12:55:31;99802.44;;;25.18;47.88
43503;BME280;29098;48.184;16.298;2023-05-25T12:58:00;99803.75;;;24.89;46.30